Cleora, Colorado
Current Conditions -  °F | °C
As of 5:15 AM on Monday 26 Jan 2015 (Local Time) from KANK Reporting Station
Clear Clear  
Wind Chill: 29°   Ceiling: Unl
Heat Index: 29°   Visibility: 10mi
Dew Point: 20°   Wind: 0mph
Humidity: 67%   Direction: NA
Pressure: 30.48"   Gusts: NA
Location:  38.5561°N, 106.066°W
Report Text: KANK 261215Z AUTO 00000KT 10SM CLR M01/M07 A3048 RMK AO1 T10141068
Loading
Personal Weather Stations






























Interactive Weather Map New forecast layout! Learn more

10-Day Weather Forecast

Advertisements
Track Severe Weather on mobile